Time;durP1;ratioP1;P1;durP2;ratioP2;P2;SDS_P1;SDS_P2;PMS_P1;PMS_P2;Temp;Humidity;BMP_temperature;BMP_pressure;BME280_temperature;BME280_humidity;BME280_pressure;Samples;Min_cycle;Max_cycle;Signal;HPM_P1;HPM_P2
2021/01/21 00:00:40;;;;;;;1.17;0.70;;;20.00;44.40;;;;;;6268532;28;20032;-49
2021/01/21 00:03:40;;;;;;;1.08;0.70;;;20.00;44.30;;;;;;6268241;28;20130;-50
2021/01/21 00:06:41;;;;;;;0.80;0.60;;;20.00;44.30;;;;;;6268671;28;20031;-49
2021/01/21 00:09:42;;;;;;;0.70;0.60;;;20.00;44.30;;;;;;6261831;28;20385;-51
2021/01/21 00:12:42;;;;;;;0.60;0.60;;;20.00;44.20;;;;;;6267048;28;20051;-49
2021/01/21 00:15:43;;;;;;;1.00;0.68;;;20.00;44.20;;;;;;6267884;28;20520;-54
2021/01/21 00:18:43;;;;;;;0.90;0.70;;;20.00;45.00;;;;;;6267868;28;20111;-49
2021/01/21 00:21:44;;;;;;;0.80;0.63;;;20.00;44.20;;;;;;6268056;28;20033;-50
2021/01/21 00:24:44;;;;;;;0.70;0.55;;;20.00;44.30;;;;;;6263314;28;20107;-49
2021/01/21 00:27:45;;;;;;;0.80;0.70;;;20.00;44.30;;;;;;6267806;28;20033;-49
2021/01/21 00:30:46;;;;;;;0.70;0.60;;;20.00;44.30;;;;;;6267539;28;20029;-48
2021/01/21 00:33:46;;;;;;;0.80;0.60;;;20.00;44.20;;;;;;6267655;28;20028;-50
2021/01/21 00:36:47;;;;;;;1.02;0.77;;;20.00;44.30;;;;;;6267425;28;20028;-48
2021/01/21 00:39:47;;;;;;;1.98;0.70;;;20.00;44.40;;;;;;6265661;28;20055;-49
2021/01/21 00:42:48;;;;;;;0.70;0.60;;;20.00;44.40;;;;;;6253430;28;20033;-49
2021/01/21 00:45:51;;;;;;;1.00;0.70;;;20.00;44.40;;;;;;6257564;28;20025;-48
2021/01/21 00:48:51;;;;;;;0.60;0.60;;;20.00;44.40;;;;;;6258296;28;20441;-51
2021/01/21 00:51:52;;;;;;;1.10;0.85;;;20.00;44.40;;;;;;6265341;28;20029;-54
2021/01/21 00:54:52;;;;;;;1.48;0.73;;;20.00;44.50;;;;;;6267340;28;20100;-48
2021/01/21 00:57:53;;;;;;;0.70;0.60;;;20.00;44.40;;;;;;6267660;28;20082;-50
2021/01/21 01:00:54;;;;;;;1.00;0.60;;;20.00;44.40;;;;;;6267282;28;20029;-54
2021/01/21 01:03:54;;;;;;;1.08;0.60;;;20.00;44.40;;;;;;6271141;28;20057;-49
2021/01/21 01:06:55;;;;;;;1.10;0.80;;;20.00;44.40;;;;;;6271972;28;20029;-49
2021/01/21 01:09:55;;;;;;;0.77;0.60;;;20.00;44.50;;;;;;6257469;28;20523;-54
2021/01/21 01:12:56;;;;;;;1.10;0.63;;;20.00;44.50;;;;;;6272381;28;20025;-50
2021/01/21 01:15:57;;;;;;;0.82;0.63;;;20.00;44.40;;;;;;6262101;28;20036;-49
2021/01/21 01:18:57;;;;;;;0.70;0.50;;;20.00;44.40;;;;;;6271896;28;20021;-49
2021/01/21 01:21:58;;;;;;;0.93;0.60;;;19.90;44.30;;;;;;6271739;28;20118;-49
2021/01/21 01:24:59;;;;;;;0.90;0.70;;;19.90;44.40;;;;;;6271653;28;20029;-52
2021/01/21 01:28:00;;;;;;;0.77;0.50;;;19.90;44.40;;;;;;6271872;28;20072;-50
2021/01/21 01:31:00;;;;;;;0.80;0.75;;;19.90;44.40;;;;;;6271628;28;20028;-51
2021/01/21 01:34:01;;;;;;;0.80;0.50;;;20.00;44.50;;;;;;6271759;28;20033;-50
2021/01/21 01:37:01;;;;;;;1.35;0.70;;;19.90;44.40;;;;;;6271595;28;20071;-49
2021/01/21 01:40:02;;;;;;;0.73;0.60;;;19.90;44.30;;;;;;6271159;28;20088;-49
2021/01/21 01:43:02;;;;;;;0.60;0.52;;;19.90;44.40;;;;;;6271769;28;20031;-49
2021/01/21 01:46:05;;;;;;;0.70;0.70;;;19.90;44.50;;;;;;6271208;28;20105;-50
2021/01/21 01:49:06;;;;;;;0.80;0.63;;;19.90;44.50;;;;;;6271425;28;20033;-52
2021/01/21 01:52:07;;;;;;;0.65;0.50;;;19.90;44.40;;;;;;6267849;28;20394;-50
2021/01/21 01:55:15;;;;;;;0.57;0.50;;;19.90;44.40;;;;;;6271513;28;20029;-49
2021/01/21 01:58:17;;;;;;;0.85;0.60;;;19.90;44.40;;;;;;6221958;28;20440;-49
2021/01/21 02:01:18;;;;;;;0.77;0.50;;;19.90;44.40;;;;;;6238106;28;20049;-50
2021/01/21 02:04:19;;;;;;;1.25;0.80;;;19.90;44.50;;;;;;6270991;28;20044;-50
2021/01/21 02:07:20;;;;;;;0.95;0.70;;;19.90;44.40;;;;;;6270762;28;20123;-49
2021/01/21 02:10:21;;;;;;;1.02;0.60;;;19.90;44.40;;;;;;6249162;28;20098;-49
2021/01/21 02:13:50;;;;;;;1.13;0.80;;;19.90;44.40;;;;;;6269689;28;20362;-48
2021/01/21 02:17:39;;;;;;;0.98;0.88;;;19.90;44.40;;;;;;6270719;28;20082;-49
2021/01/21 02:21:09;;;;;;;0.70;0.55;;;19.90;44.50;;;;;;6267807;28;20124;-52
2021/01/21 02:24:49;;;;;;;0.73;0.50;;;19.90;44.40;;;;;;6221556;28;20037;-49
2021/01/21 02:28:25;;;;;;;0.85;0.60;;;19.90;44.50;;;;;;6251541;28;20040;-49
2021/01/21 02:31:45;;;;;;;0.82;0.60;;;19.90;44.40;;;;;;6257282;28;20098;-50
2021/01/21 02:34:48;;;;;;;0.60;0.60;;;19.90;44.40;;;;;;6269242;28;20740;-49
2021/01/21 02:37:54;;;;;;;0.90;0.77;;;19.90;44.50;;;;;;6270230;28;20025;-51
2021/01/21 02:40:54;;;;;;;0.63;0.52;;;19.90;44.50;;;;;;6270463;28;20025;-50
2021/01/21 02:43:55;;;;;;;0.88;0.60;;;19.90;44.50;;;;;;6270387;28;20028;-51
2021/01/21 02:46:57;;;;;;;0.55;0.50;;;19.90;44.40;;;;;;6268469;28;20025;-50
2021/01/21 02:49:57;;;;;;;0.77;0.50;;;19.90;44.50;;;;;;6270113;28;20107;-49
2021/01/21 02:53:00;;;;;;;1.40;0.65;;;19.90;44.50;;;;;;6269866;28;20538;-53
2021/01/21 02:56:06;;;;;;;0.55;0.50;;;19.90;44.50;;;;;;6270164;28;20115;-51
2021/01/21 02:59:13;;;;;;;0.70;0.55;;;19.90;44.50;;;;;;6247789;28;20030;-53
2021/01/21 03:02:17;;;;;;;1.45;0.55;;;19.90;44.40;;;;;;6250448;28;20099;-49
2021/01/21 03:05:20;;;;;;;0.33;0.33;;;19.90;44.50;;;;;;6269558;28;20028;-50
2021/01/21 03:08:21;;;;;;;0.68;0.52;;;19.90;44.50;;;;;;6264353;28;20025;-49
2021/01/21 03:11:21;;;;;;;0.40;0.38;;;19.80;44.40;;;;;;6244762;28;20079;-49
2021/01/21 03:14:22;;;;;;;0.70;0.50;;;19.90;44.50;;;;;;6266925;28;20616;-49
2021/01/21 03:17:24;;;;;;;0.70;0.50;;;19.80;44.40;;;;;;6265028;28;20032;-49
2021/01/21 03:20:25;;;;;;;0.50;0.50;;;19.90;44.50;;;;;;6269179;28;20749;-49
2021/01/21 03:23:27;;;;;;;0.68;0.47;;;19.80;44.40;;;;;;6269127;28;20033;-48
2021/01/21 03:26:28;;;;;;;0.35;0.35;;;19.90;44.60;;;;;;6268300;28;20852;-49
2021/01/21 03:29:29;;;;;;;0.47;0.45;;;19.90;44.50;;;;;;6268810;28;20486;-49
2021/01/21 03:32:30;;;;;;;0.63;0.50;;;19.80;44.40;;;;;;6268944;28;20040;-48
2021/01/21 03:35:30;;;;;;;0.65;0.50;;;19.80;44.40;;;;;;6268993;28;20032;-51
2021/01/21 03:38:31;;;;;;;0.40;0.40;;;19.80;44.40;;;;;;6268550;28;20025;-50
2021/01/21 03:41:31;;;;;;;0.80;0.52;;;19.80;44.40;;;;;;6268919;28;20029;-54
2021/01/21 03:44:32;;;;;;;1.05;0.60;;;19.80;44.50;;;;;;6270463;28;20112;-51
2021/01/21 03:47:32;;;;;;;0.38;0.38;;;19.80;44.40;;;;;;6269505;28;20520;-49
2021/01/21 03:50:33;;;;;;;0.95;0.70;;;19.80;44.40;;;;;;6267494;28;20035;-49
2021/01/21 03:53:33;;;;;;;0.80;0.60;;;19.80;44.40;;;;;;6253711;28;20025;-50
2021/01/21 03:56:34;;;;;;;0.60;0.40;;;19.80;44.40;;;;;;6269405;28;20033;-50
2021/01/21 03:59:35;;;;;;;0.40;0.40;;;19.80;44.40;;;;;;6269170;28;20106;-48
2021/01/21 04:02:36;;;;;;;0.65;0.50;;;19.80;44.50;;;;;;6268992;28;20068;-51
2021/01/21 04:05:36;;;;;;;0.63;0.57;;;19.80;44.40;;;;;;6268949;28;20415;-53
2021/01/21 04:08:37;;;;;;;0.52;0.50;;;19.80;44.40;;;;;;6261283;28;20041;-50
2021/01/21 04:11:38;;;;;;;0.70;0.60;;;19.80;44.50;;;;;;6244368;28;20022;-47
2021/01/21 04:14:38;;;;;;;0.70;0.60;;;19.80;44.50;;;;;;6244004;28;20022;-48
2021/01/21 04:17:39;;;;;;;0.63;0.45;;;19.80;44.50;;;;;;6244092;28;20405;-50
2021/01/21 04:20:40;;;;;;;0.65;0.52;;;19.80;44.50;;;;;;6267046;28;20110;-51
2021/01/21 04:23:41;;;;;;;0.43;0.43;;;19.80;44.50;;;;;;6264083;28;20038;-49
2021/01/21 04:26:41;;;;;;;0.57;0.45;;;19.80;44.40;;;;;;6243615;28;20017;-49
2021/01/21 04:29:42;;;;;;;0.50;0.50;;;19.80;44.40;;;;;;6243758;28;20021;-49
2021/01/21 04:32:43;;;;;;;0.38;0.35;;;19.80;44.50;;;;;;6243732;28;20026;-49
2021/01/21 04:35:43;;;;;;;0.45;0.40;;;19.80;44.40;;;;;;6243552;28;20546;-48
2021/01/21 04:38:44;;;;;;;0.90;0.60;;;19.80;44.50;;;;;;6244292;28;20037;-51
2021/01/21 04:41:45;;;;;;;0.82;0.60;;;19.80;44.40;;;;;;6244858;28;20025;-51
2021/01/21 04:44:46;;;;;;;0.63;0.40;;;19.80;44.40;;;;;;6245158;28;20030;-50
2021/01/21 04:47:47;;;;;;;0.40;0.40;;;19.80;44.50;;;;;;6243311;28;20084;-53
2021/01/21 04:50:49;;;;;;;0.60;0.50;;;19.80;45.10;;;;;;6244513;28;20033;-48
2021/01/21 04:53:59;;;;;;;0.50;0.50;;;19.80;44.40;;;;;;6244573;28;20029;-48
2021/01/21 04:57:03;;;;;;;0.30;0.30;;;19.80;44.40;;;;;;6244561;28;20065;-50
2021/01/21 05:00:05;;;;;;;0.60;0.50;;;19.80;44.40;;;;;;6244515;28;20506;-49
2021/01/21 05:03:05;;;;;;;0.65;0.45;;;19.80;44.40;;;;;;6242865;28;20050;-48
2021/01/21 05:06:07;;;;;;;0.43;0.40;;;19.80;44.50;;;;;;6244440;28;20070;-52
2021/01/21 05:09:08;;;;;;;0.68;0.50;;;19.80;44.50;;;;;;6244423;28;20053;-48
2021/01/21 05:12:08;;;;;;;0.50;0.50;;;19.80;44.40;;;;;;6244427;28;20429;-50
2021/01/21 05:15:09;;;;;;;0.65;0.40;;;19.80;44.30;;;;;;6244296;28;20029;-52
2021/01/21 05:18:13;;;;;;;0.50;0.50;;;19.90;45.00;;;;;;6244562;28;20044;-52
2021/01/21 05:21:16;;;;;;;0.40;0.40;;;19.90;44.20;;;;;;6244400;28;20097;-51
2021/01/21 05:24:18;;;;;;;0.50;0.47;;;19.90;44.10;;;;;;6243497;28;20036;-50
2021/01/21 05:27:22;;;;;;;0.35;0.32;;;19.90;44.10;;;;;;6219648;28;20030;-49
2021/01/21 05:30:27;;;;;;;0.73;0.40;;;19.90;44.10;;;;;;6240323;28;20025;-49
2021/01/21 05:33:29;;;;;;;0.30;0.30;;;20.00;44.20;;;;;;6268059;28;20071;-51
2021/01/21 05:36:36;;;;;;;0.50;0.50;;;20.00;44.90;;;;;;6250359;28;20394;-50
2021/01/21 05:39:39;;;;;;;0.82;0.50;;;20.00;44.10;;;;;;6244111;28;20033;-49
2021/01/21 05:42:40;;;;;;;0.70;0.50;;;20.00;44.10;;;;;;6267798;28;20119;-52
2021/01/21 05:45:45;;;;;;;0.80;0.50;;;20.00;44.10;;;;;;6267378;28;20037;-49
2021/01/21 05:48:47;;;;;;;0.63;0.50;;;20.00;44.10;;;;;;6269354;28;20052;-49
2021/01/21 05:51:48;;;;;;;0.60;0.50;;;20.00;44.10;;;;;;6253767;28;20140;-51
2021/01/21 05:54:50;;;;;;;0.32;0.30;;;20.00;44.20;;;;;;6248527;28;20029;-49
2021/01/21 05:57:52;;;;;;;0.35;0.30;;;20.00;44.20;;;;;;6272107;28;20056;-50
2021/01/21 06:00:53;;;;;;;0.70;0.45;;;20.00;44.10;;;;;;6262705;28;20033;-50
2021/01/21 06:03:55;;;;;;;0.60;0.40;;;20.00;44.10;;;;;;6247313;28;20456;-52
2021/01/21 06:06:56;;;;;;;0.40;0.40;;;20.00;44.10;;;;;;6264520;28;20044;-53
2021/01/21 06:09:58;;;;;;;0.80;0.50;;;20.00;44.10;;;;;;6253655;28;20117;-50
2021/01/21 06:13:05;;;;;;;0.40;0.40;;;20.00;44.10;;;;;;6270583;28;20024;-49
2021/01/21 06:16:07;;;;;;;0.50;0.50;;;20.00;44.10;;;;;;6262867;28;20505;-48
2021/01/21 06:19:08;;;;;;;0.32;0.32;;;20.00;44.20;;;;;;6247000;28;20478;-52
2021/01/21 06:22:13;;;;;;;0.50;0.50;;;20.00;44.20;;;;;;6246566;28;20035;-52
2021/01/21 06:25:16;;;;;;;1.17;0.60;;;20.00;44.10;;;;;;6247100;28;20029;-48
2021/01/21 06:28:18;;;;;;;1.02;0.60;;;20.00;44.10;;;;;;6271037;28;20029;-56
2021/01/21 06:31:19;;;;;;;0.90;0.63;;;20.00;44.10;;;;;;6262425;28;20585;-49
2021/01/21 06:34:30;;;;;;;1.05;0.60;;;20.00;44.10;;;;;;6246459;28;20553;-53
2021/01/21 06:37:33;;;;;;;3.88;1.00;;;20.00;44.10;;;;;;6256765;28;20039;-53
2021/01/21 06:40:35;;;;;;;10.30;2.05;;;20.00;44.10;;;;;;6204851;28;20438;-48
2021/01/21 06:43:40;;;;;;;14.70;2.20;;;19.80;37.60;;;;;;6220643;28;20024;-51
2021/01/21 06:46:43;;;;;;;3.90;2.28;;;19.60;35.40;;;;;;6206022;28;20502;-52
2021/01/21 06:49:45;;;;;;;6.78;2.53;;;19.50;33.20;;;;;;6212758;28;20060;-48
2021/01/21 06:52:46;;;;;;;6.45;2.88;;;19.50;32.40;;;;;;6213105;28;20033;-49
2021/01/21 06:55:49;;;;;;;12.10;3.42;;;19.40;31.80;;;;;;6205236;28;20027;-53
2021/01/21 06:58:53;;;;;;;14.38;3.53;;;19.40;32.80;;;;;;6199300;28;20057;-48
2021/01/21 07:01:55;;;;;;;12.77;3.10;;;19.40;31.30;;;;;;6206002;28;20075;-49
2021/01/21 07:05:08;;;;;;;7.45;2.70;;;19.30;32.60;;;;;;6197230;28;20073;-52
2021/01/21 07:08:09;;;;;;;5.28;2.50;;;19.50;34.30;;;;;;6194911;28;20041;-49
2021/01/21 07:11:12;;;;;;;11.10;2.80;;;19.80;35.90;;;;;;6205031;28;20025;-50
2021/01/21 07:14:17;;;;;;;7.57;2.58;;;19.90;36.70;;;;;;6219545;28;20411;-50
2021/01/21 07:17:18;;;;;;;12.88;2.80;;;20.10;36.70;;;;;;6192278;28;20022;-51
2021/01/21 07:20:20;;;;;;;6.88;2.00;;;20.00;37.50;;;;;;6220175;28;20432;-52
2021/01/21 07:23:20;;;;;;;6.35;2.22;;;20.10;38.10;;;;;;6219277;28;20030;-52
2021/01/21 07:26:24;;;;;;;6.55;2.33;;;20.20;38.30;;;;;;6219994;28;20084;-57
2021/01/21 07:29:37;;;;;;;4.43;2.05;;;20.20;38.50;;;;;;6191554;28;20064;-54
2021/01/21 07:32:37;;;;;;;6.07;2.08;;;20.30;39.20;;;;;;6195099;28;20054;-49
2021/01/21 07:35:41;;;;;;;4.50;1.83;;;20.30;39.00;;;;;;6202134;28;20060;-50
2021/01/21 07:38:41;;;;;;;7.05;2.17;;;20.30;39.40;;;;;;6213188;28;20033;-52
2021/01/21 07:41:51;;;;;;;7.10;2.00;;;20.30;39.40;;;;;;6203849;28;20030;-52
2021/01/21 07:44:52;;;;;;;6.38;1.80;;;20.40;39.60;;;;;;6219483;28;20051;-52
2021/01/21 07:47:55;;;;;;;7.35;1.83;;;20.40;40.10;;;;;;6222017;28;20378;-53
2021/01/21 07:51:13;;;;;;;4.40;1.83;;;20.40;39.80;;;;;;6221730;28;20030;-52
2021/01/21 07:54:14;;;;;;;4.70;1.63;;;20.50;40.00;;;;;;6220461;28;20497;-52
2021/01/21 07:57:22;;;;;;;4.63;1.38;;;20.50;40.10;;;;;;6213846;28;20027;-53
2021/01/21 08:00:23;;;;;;;3.35;1.90;;;20.50;40.20;;;;;;6196955;28;20031;-53
2021/01/21 08:03:43;;;;;;;3.17;1.42;;;20.50;40.20;;;;;;6196450;28;20757;-57
2021/01/21 08:06:53;;;;;;;6.60;1.50;;;20.50;40.40;;;;;;6196073;28;20508;-52
2021/01/21 08:10:15;;;;;;;6.15;1.75;;;20.50;40.30;;;;;;6196150;28;20019;-56
2021/01/21 08:13:15;;;;;;;4.28;1.33;;;20.60;40.60;;;;;;6196204;28;20145;-51
2021/01/21 08:16:17;;;;;;;2.53;1.30;;;20.60;40.50;;;;;;6196277;28;20057;-50
2021/01/21 08:19:19;;;;;;;3.28;1.67;;;20.80;40.20;;;;;;6196024;28;20018;-54
2021/01/21 08:22:19;;;;;;;6.13;1.30;;;20.90;40.00;;;;;;6196192;28;20499;-54
2021/01/21 08:25:22;;;;;;;39.92;2.65;;;21.00;39.70;;;;;;6195535;28;20066;-57
2021/01/21 08:28:28;;;;;;;6.82;1.50;;;21.10;40.10;;;;;;6219437;28;20026;-62
2021/01/21 08:31:35;;;;;;;7.32;1.60;;;21.10;40.00;;;;;;6220079;28;20018;-50
2021/01/21 08:34:35;;;;;;;5.38;1.70;;;21.10;40.20;;;;;;6220086;28;20471;-58
2021/01/21 08:37:39;;;;;;;7.35;1.65;;;21.10;40.20;;;;;;6203409;28;20035;-51
2021/01/21 08:40:42;;;;;;;11.30;1.83;;;21.20;41.30;;;;;;6195815;28;20715;-49
2021/01/21 08:43:43;;;;;;;24.08;1.83;;;21.10;41.10;;;;;;6195667;28;20416;-59
2021/01/21 08:46:57;;;;;;;6.25;2.03;;;21.10;41.00;;;;;;6195439;28;20027;-54
2021/01/21 08:49:57;;;;;;;7.88;2.33;;;21.10;41.20;;;;;;6211318;28;20030;-55
2021/01/21 08:53:07;;;;;;;4.47;1.55;;;21.10;41.20;;;;;;6219738;28;20104;-56
2021/01/21 08:56:12;;;;;;;4.47;1.40;;;21.20;41.40;;;;;;6206384;28;20030;-58
2021/01/21 08:59:23;;;;;;;;;;;21.10;41.60;;;;;;6209693;28;20045;-55
2021/01/21 09:02:42;;;;;;;6.82;1.52;;;21.10;41.70;;;;;;6195744;28;19901;-54
2021/01/21 09:05:56;;;;;;;4.07;1.67;;;21.10;41.90;;;;;;6216513;28;20030;-50
2021/01/21 09:08:58;;;;;;;5.40;1.38;;;21.10;41.60;;;;;;6200146;28;20024;-53
2021/01/21 09:12:16;;;;;;;10.10;1.67;;;21.10;41.50;;;;;;6198473;28;20101;-52
2021/01/21 09:15:17;;;;;;;4.22;1.42;;;21.10;42.10;;;;;;6202533;28;20026;-53
2021/01/21 09:18:18;;;;;;;7.05;1.48;;;21.10;41.70;;;;;;6195350;28;20542;-55
2021/01/21 09:21:19;;;;;;;4.18;1.30;;;21.10;41.60;;;;;;6195648;28;20472;-53
2021/01/21 09:24:19;;;;;;;2.35;1.17;;;21.10;41.60;;;;;;6197887;28;20042;-57
2021/01/21 09:27:23;;;;;;;6.32;1.83;;;21.10;41.50;;;;;;6199503;28;20169;-51
2021/01/21 09:30:24;;;;;;;7.28;1.55;;;21.10;41.70;;;;;;6200457;28;20023;-54
2021/01/21 09:33:26;;;;;;;10.73;1.60;;;21.10;41.20;;;;;;6200416;28;20546;-55
2021/01/21 09:36:29;;;;;;;8.10;1.50;;;21.10;41.20;;;;;;6199985;28;20387;-56
2021/01/21 09:39:29;;;;;;;6.95;1.95;;;21.10;42.70;;;;;;6198935;28;20019;-52
2021/01/21 09:42:30;;;;;;;4.22;1.50;;;21.10;42.00;;;;;;6199510;28;20058;-62
2021/01/21 09:45:32;;;;;;;12.80;2.05;;;21.10;41.60;;;;;;6199749;28;20023;-53
2021/01/21 09:48:32;;;;;;;10.13;1.65;;;21.20;41.90;;;;;;6198155;28;20030;-54
2021/01/21 09:51:33;;;;;;;11.80;1.90;;;21.30;42.00;;;;;;6197630;28;20542;-58
2021/01/21 09:54:35;;;;;;;8.63;1.42;;;21.30;41.70;;;;;;6216133;28;20036;-57
2021/01/21 09:57:35;;;;;;;5.63;1.77;;;21.20;42.40;;;;;;6220664;28;20030;-59
2021/01/21 10:00:36;;;;;;;5.10;1.25;;;21.20;42.80;;;;;;6221844;28;20196;-57
2021/01/21 10:03:36;;;;;;;10.55;1.60;;;21.30;43.00;;;;;;6213412;28;20054;-55
2021/01/21 10:06:37;;;;;;;5.10;1.52;;;21.40;43.50;;;;;;6217524;28;20034;-56
2021/01/21 10:09:38;;;;;;;7.32;1.45;;;21.40;43.10;;;;;;6208297;28;20045;-58
2021/01/21 10:12:39;;;;;;;4.35;1.27;;;21.40;43.10;;;;;;6221973;28;20025;-58
2021/01/21 10:15:39;;;;;;;5.63;1.30;;;21.40;43.20;;;;;;6208010;28;20068;-58
2021/01/21 10:18:41;;;;;;;6.60;1.67;;;21.40;43.40;;;;;;6214715;28;20042;-57
2021/01/21 10:21:42;;;;;;;5.28;1.40;;;21.40;43.40;;;;;;6195537;28;20052;-59
2021/01/21 10:24:44;;;;;;;4.25;1.35;;;21.40;43.40;;;;;;6198789;28;20054;-58
2021/01/21 10:27:47;;;;;;;5.28;1.20;;;21.40;43.40;;;;;;6219688;28;20412;-58
2021/01/21 10:30:50;;;;;;;2.53;1.30;;;21.30;43.40;;;;;;6220648;28;20021;-59
2021/01/21 10:33:51;;;;;;;4.45;1.30;;;21.40;43.40;;;;;;6185616;28;20551;-58
2021/01/21 10:36:52;;;;;;;3.17;1.05;;;21.40;43.50;;;;;;6214884;28;20030;-57
2021/01/21 10:39:52;;;;;;;5.75;1.35;;;21.40;44.00;;;;;;6200614;28;20022;-57
2021/01/21 10:42:53;;;;;;;4.93;1.20;;;21.50;44.40;;;;;;6220665;28;20364;-58
2021/01/21 10:45:53;;;;;;;4.90;1.17;;;21.50;43.80;;;;;;6205976;28;20033;-57
2021/01/21 10:48:54;;;;;;;1.42;1.05;;;21.50;43.70;;;;;;6203702;28;20034;-56
2021/01/21 10:51:56;;;;;;;2.83;1.30;;;21.50;43.80;;;;;;6204444;28;20060;-58
2021/01/21 10:54:59;;;;;;;5.35;1.33;;;21.50;43.80;;;;;;6196162;28;20019;-56
2021/01/21 10:58:00;;;;;;;3.03;1.17;;;21.50;43.90;;;;;;6200842;28;20027;-56
2021/01/21 11:01:00;;;;;;;4.60;1.10;;;21.50;43.70;;;;;;6210433;28;20033;-58
2021/01/21 11:04:03;;;;;;;1.60;0.90;;;21.40;43.90;;;;;;6196384;28;20096;-58
2021/01/21 11:07:04;;;;;;;6.50;1.40;;;21.40;44.00;;;;;;6217713;28;20018;-60
2021/01/21 11:10:05;;;;;;;3.90;1.10;;;21.40;43.80;;;;;;6208720;28;20357;-60
2021/01/21 11:13:07;;;;;;;3.85;1.13;;;21.50;43.90;;;;;;6216231;28;20022;-59
2021/01/21 11:16:09;;;;;;;1.63;1.02;;;21.50;43.70;;;;;;6206424;28;20124;-56
2021/01/21 11:19:10;;;;;;;5.53;1.25;;;21.50;43.80;;;;;;6219731;28;20344;-57
2021/01/21 11:22:11;;;;;;;2.88;1.00;;;21.60;43.80;;;;;;6207875;28;20074;-59
2021/01/21 11:25:12;;;;;;;4.78;1.20;;;21.50;43.70;;;;;;6211861;28;20057;-62
2021/01/21 11:28:12;;;;;;;5.88;1.45;;;21.50;43.40;;;;;;6194038;28;20056;-59
2021/01/21 11:31:13;;;;;;;3.45;1.15;;;21.60;44.10;;;;;;6197374;28;20486;-57
2021/01/21 11:34:14;;;;;;;5.00;1.27;;;21.50;43.70;;;;;;6171431;28;20133;-59
2021/01/21 11:37:14;;;;;;;3.22;1.35;;;21.50;44.10;;;;;;6204027;28;20114;-58
2021/01/21 11:40:15;;;;;;;13.38;1.60;;;21.50;44.50;;;;;;6211201;28;20090;-56
2021/01/21 11:43:16;;;;;;;84.18;4.38;;;21.40;44.80;;;;;;6212673;28;20072;-57
2021/01/21 11:46:16;;;;;;;27.45;2.40;;;21.50;45.00;;;;;;6205039;28;20048;-57
2021/01/21 11:49:17;;;;;;;28.63;2.15;;;21.40;44.60;;;;;;6193540;28;20058;-58
2021/01/21 11:52:17;;;;;;;37.22;3.65;;;21.20;42.60;;;;;;6198797;28;20038;-58
2021/01/21 11:55:18;;;;;;;14.82;1.65;;;21.00;39.60;;;;;;6196071;28;20026;-57
2021/01/21 11:58:19;;;;;;;7.03;1.92;;;21.00;42.30;;;;;;6194976;28;20089;-58
2021/01/21 12:01:19;;;;;;;14.77;2.00;;;21.10;42.50;;;;;;6195444;28;20066;-56
2021/01/21 12:04:20;;;;;;;13.52;2.05;;;21.10;42.60;;;;;;6207597;28;20062;-56
2021/01/21 12:07:21;;;;;;;7.57;1.50;;;21.20;42.60;;;;;;6206573;28;20037;-59
2021/01/21 12:10:21;;;;;;;13.60;1.83;;;21.20;42.60;;;;;;6199524;28;20049;-55
2021/01/21 12:13:22;;;;;;;9.40;1.60;;;21.20;42.80;;;;;;6203596;28;20022;-57
2021/01/21 12:16:22;;;;;;;12.95;1.40;;;21.20;42.80;;;;;;6208170;28;20030;-60
2021/01/21 12:19:23;;;;;;;12.15;1.75;;;21.40;42.60;;;;;;6194309;28;20073;-62
2021/01/21 12:22:26;;;;;;;16.33;1.38;;;21.40;42.80;;;;;;6205392;28;20514;-56
2021/01/21 12:25:28;;;;;;;5.57;1.60;;;21.50;42.40;;;;;;6194352;28;20022;-57
2021/01/21 12:28:28;;;;;;;6.63;1.83;;;21.40;41.30;;;;;;6193391;28;20054;-56
2021/01/21 12:31:29;;;;;;;9.90;1.60;;;21.30;40.10;;;;;;6193242;28;20033;-56
2021/01/21 12:34:30;;;;;;;7.80;1.65;;;21.30;41.70;;;;;;6194100;28;20488;-60
2021/01/21 12:37:31;;;;;;;10.25;1.50;;;21.50;41.40;;;;;;6194864;28;20065;-57
2021/01/21 12:40:32;;;;;;;12.48;1.40;;;21.50;41.60;;;;;;6198209;28;20137;-61
2021/01/21 12:43:33;;;;;;;5.00;1.75;;;21.60;41.40;;;;;;6206550;28;20027;-55
2021/01/21 12:46:34;;;;;;;2.72;1.50;;;21.60;41.40;;;;;;6203778;28;20037;-57
2021/01/21 12:49:35;;;;;;;9.23;1.70;;;21.60;41.60;;;;;;6198806;28;20030;-58
2021/01/21 12:52:35;;;;;;;5.78;1.52;;;21.70;41.60;;;;;;6195431;28;20029;-59
2021/01/21 12:55:36;;;;;;;5.47;1.35;;;21.90;40.90;;;;;;6216281;28;20113;-64
2021/01/21 12:58:37;;;;;;;6.45;1.50;;;22.00;40.90;;;;;;6203340;28;20049;-62
2021/01/21 13:01:37;;;;;;;7.53;1.25;;;22.10;40.60;;;;;;6196806;28;20395;-62
2021/01/21 13:04:38;;;;;;;4.43;1.55;;;22.20;40.70;;;;;;6204883;28;20106;-62
2021/01/21 13:07:38;;;;;;;2.72;1.27;;;22.10;41.00;;;;;;6213069;28;20034;-64
2021/01/21 13:10:39;;;;;;;7.05;1.58;;;22.40;40.70;;;;;;6181253;28;20027;-63
2021/01/21 13:13:40;;;;;;;7.57;1.45;;;22.50;40.20;;;;;;6214124;28;20056;-61
2021/01/21 13:16:40;;;;;;;5.32;1.55;;;22.40;40.40;;;;;;6206839;28;20025;-61
2021/01/21 13:19:44;;;;;;;4.80;1.17;;;22.10;40.90;;;;;;6218885;28;20018;-61
2021/01/21 13:22:44;;;;;;;2.42;1.10;;;21.90;41.40;;;;;;6221749;28;20030;-61
2021/01/21 13:25:45;;;;;;;4.22;1.17;;;21.80;42.00;;;;;;6221684;28;20022;-58
2021/01/21 13:28:46;;;;;;;3.28;1.10;;;21.70;42.20;;;;;;6206677;28;20076;-60
2021/01/21 13:31:48;;;;;;;2.38;1.10;;;21.60;42.40;;;;;;6199641;28;20026;-61
2021/01/21 13:34:48;;;;;;;6.25;1.20;;;21.60;42.40;;;;;;6210344;28;20018;-60
2021/01/21 13:37:49;;;;;;;7.25;1.23;;;21.60;42.30;;;;;;6194177;28;20631;-58
2021/01/21 13:40:50;;;;;;;3.08;1.30;;;21.70;42.00;;;;;;6215143;28;20038;-60
2021/01/21 13:43:51;;;;;;;3.50;1.33;;;21.70;42.30;;;;;;6218656;28;20022;-61
2021/01/21 13:46:52;;;;;;;2.63;1.05;;;21.80;42.10;;;;;;6216382;28;20049;-58
2021/01/21 13:49:53;;;;;;;2.15;1.00;;;21.80;42.10;;;;;;6208787;28;20022;-62
2021/01/21 13:52:53;;;;;;;1.45;1.05;;;22.00;41.90;;;;;;6210343;28;20062;-63
2021/01/21 13:55:54;;;;;;;1.67;1.00;;;22.00;41.90;;;;;;6184952;28;20027;-60
2021/01/21 13:58:54;;;;;;;2.83;1.25;;;22.10;42.10;;;;;;6208888;28;20057;-60
2021/01/21 14:01:55;;;;;;;2.90;1.00;;;22.00;41.90;;;;;;6183887;28;20031;-57
2021/01/21 14:04:56;;;;;;;2.10;0.85;;;21.90;42.00;;;;;;6206529;28;20128;-56
2021/01/21 14:07:56;;;;;;;5.35;1.27;;;21.90;41.70;;;;;;6214392;28;20487;-59
2021/01/21 14:10:57;;;;;;;2.33;1.05;;;21.80;41.40;;;;;;6219537;28;20084;-58
2021/01/21 14:13:57;;;;;;;10.13;1.10;;;21.70;41.80;;;;;;6206886;28;20027;-61
2021/01/21 14:16:58;;;;;;;6.25;1.13;;;21.80;41.90;;;;;;6221842;28;20113;-65
2021/01/21 14:19:59;;;;;;;10.73;1.45;;;21.90;41.70;;;;;;6208219;28;20034;-59
2021/01/21 14:23:00;;;;;;;5.00;1.25;;;21.90;41.80;;;;;;6215403;28;20030;-58
2021/01/21 14:26:01;;;;;;;3.00;0.95;;;22.00;41.70;;;;;;6197449;28;20113;-61
2021/01/21 14:29:02;;;;;;;1.27;0.77;;;22.00;41.40;;;;;;6195952;28;20030;-60
2021/01/21 14:32:03;;;;;;;5.10;0.90;;;22.00;41.50;;;;;;6194695;28;20469;-61
2021/01/21 14:35:04;;;;;;;5.95;1.00;;;21.90;41.60;;;;;;6194132;28;20018;-61
2021/01/21 14:38:05;;;;;;;9.40;1.13;;;22.00;41.70;;;;;;6195936;28;20054;-59
2021/01/21 14:41:06;;;;;;;5.78;0.93;;;22.00;41.90;;;;;;6196722;28;20025;-61
2021/01/21 14:44:07;;;;;;;5.30;1.27;;;22.00;41.90;;;;;;6194818;28;20018;-61
2021/01/21 14:47:08;;;;;;;1.88;0.70;;;22.00;41.90;;;;;;6195771;28;20098;-60
2021/01/21 14:50:10;;;;;;;1.80;0.63;;;22.00;41.80;;;;;;6213068;28;20129;-61
2021/01/21 14:53:10;;;;;;;2.35;0.80;;;22.10;41.90;;;;;;6198772;28;20797;-61
2021/01/21 14:56:11;;;;;;;11.73;1.35;;;22.00;42.10;;;;;;6207969;28;20117;-61
2021/01/21 14:59:12;;;;;;;5.00;1.00;;;21.90;42.20;;;;;;6206717;28;20104;-62
2021/01/21 15:02:12;;;;;;;13.10;0.90;;;21.90;42.40;;;;;;6200837;28;20031;-61
2021/01/21 15:05:13;;;;;;;16.25;1.38;;;22.00;42.60;;;;;;6194957;28;20042;-58
2021/01/21 15:08:13;;;;;;;3.55;0.70;;;21.80;43.00;;;;;;6194829;28;20026;-62
2021/01/21 15:11:14;;;;;;;2.30;0.88;;;21.80;42.80;;;;;;6205061;28;20395;-67
2021/01/21 15:14:15;;;;;;;4.22;0.90;;;22.00;42.80;;;;;;6210120;28;20038;-58
2021/01/21 15:17:15;;;;;;;7.53;1.00;;;21.90;42.80;;;;;;6202099;28;20503;-55
2021/01/21 15:20:16;;;;;;;2.92;1.20;;;21.90;43.20;;;;;;6201947;28;20133;-53
2021/01/21 15:23:17;;;;;;;2.95;0.73;;;21.90;43.20;;;;;;6218092;28;20059;-70
2021/01/21 15:26:17;;;;;;;3.65;0.90;;;21.90;43.10;;;;;;6201227;28;20076;-63
2021/01/21 15:29:19;;;;;;;2.15;1.00;;;21.80;43.20;;;;;;6212215;28;20489;-62
2021/01/21 15:32:21;;;;;;;5.93;0.90;;;21.70;43.40;;;;;;6187747;28;20026;-63
2021/01/21 15:35:21;;;;;;;3.83;0.82;;;21.60;44.00;;;;;;6191933;28;20109;-62
2021/01/21 15:38:22;;;;;;;6.72;0.95;;;21.60;43.70;;;;;;6195240;28;20031;-61
2021/01/21 15:41:22;;;;;;;7.97;0.93;;;21.60;44.00;;;;;;6195290;28;20469;-62
2021/01/21 15:44:23;;;;;;;4.20;1.00;;;21.60;44.00;;;;;;6194292;28;20422;-59
2021/01/21 15:47:24;;;;;;;9.65;1.20;;;21.60;44.10;;;;;;6194724;28;20483;-58